Terminal Aerodrome Forecast
Issued by NWS

Home | Current Version | Previous Version | Text Only | Print | Product List | Glossary On
Versions: 1 2 3 4 5 6 7 8 9 10 11 12 13 14 15 16
120
FTUS45 KTFX 101953 AAA
TAFHLN
TAF AMD
KHLN 101953Z 1020/1118 VRB05KT 5SM -SN BR SCT025 OVC050
      WS020/28035KT
      TEMPO 1020/1022 1SM -SN BR BKN020
     FM102200 28011KT P6SM SCT060 BKN090 WS020/28035KT
     FM110400 27006KT P6SM SCT080 BKN120
     FM111000 VRB05KT P6SM VCSH SCT040 BKN070=

USA.gov is the U.S. government's official web portal to all federal, state and local government web resources and services.